createdAt,value
2022-11-16T00:00:02.892Z,39.5
2022-11-16T00:04:59.557Z,39.5
2022-11-16T00:23:57.315Z,29.7
2022-11-16T00:28:21.260Z,28.2
2022-11-16T00:43:29.353Z,26.3
2022-11-16T00:48:14.716Z,26
2022-11-16T00:53:14.659Z,25.9
2022-11-16T00:58:14.716Z,25.9
2022-11-16T01:03:14.719Z,25.9
2022-11-16T01:08:14.691Z,25.9
2022-11-16T01:13:14.800Z,25.9
2022-11-16T01:18:15.374Z,26
2022-11-16T01:23:14.888Z,26.2
2022-11-16T01:28:14.922Z,27.2
2022-11-16T01:33:15.181Z,29.3
2022-11-16T01:38:14.881Z,32.3
2022-11-16T01:43:14.807Z,32.6
2022-11-16T01:48:14.947Z,32.6
2022-11-16T01:53:14.755Z,33.5
2022-11-16T01:58:14.778Z,34.8
2022-11-16T02:03:14.855Z,34.8
2022-11-16T02:08:14.788Z,37.6
2022-11-16T02:13:14.818Z,39.1
2022-11-16T02:18:14.698Z,39.5
2022-11-16T02:23:14.707Z,39.5
2022-11-16T02:28:14.697Z,41.3
2022-11-16T02:33:14.694Z,41
2022-11-16T02:38:14.709Z,41.3
2022-11-16T02:43:14.690Z,41.9
2022-11-16T02:48:14.712Z,45.9
2022-11-16T02:53:14.693Z,48.8
2022-11-16T02:58:14.733Z,49.4
2022-11-16T03:03:14.709Z,49.4
2022-11-16T03:08:14.715Z,53.2
2022-11-16T03:13:14.804Z,53.2
2022-11-16T03:18:14.734Z,54.2
2022-11-16T03:23:14.750Z,54.2
2022-11-16T03:28:14.728Z,54.3
2022-11-16T03:33:14.752Z,54.2
2022-11-16T03:38:14.712Z,52.1
2022-11-16T03:43:14.711Z,51.8
2022-11-16T03:48:14.776Z,52.1
2022-11-16T03:53:14.727Z,52.1
2022-11-16T03:58:14.732Z,53.1
2022-11-16T04:03:14.833Z,53.1
2022-11-16T04:08:14.783Z,53.2
2022-11-16T04:13:14.974Z,53.2
2022-11-16T04:18:14.752Z,53.2
2022-11-16T04:23:14.782Z,53.1
2022-11-16T04:28:14.734Z,53.1
2022-11-16T04:33:14.725Z,52.5
2022-11-16T04:38:14.761Z,50.4
2022-11-16T04:43:14.781Z,50.4
2022-11-16T04:48:14.803Z,50.4
2022-11-16T04:53:14.749Z,50.4
2022-11-16T04:58:14.738Z,51.5
2022-11-16T05:03:14.854Z,51.5
2022-11-16T05:08:14.693Z,52.2
2022-11-16T05:13:15.455Z,52.5
2022-11-16T05:18:14.802Z,53.4
2022-11-16T05:23:14.796Z,54.3
2022-11-16T05:33:27.366Z,61.1
2022-11-16T05:38:14.789Z,63.25
2022-11-16T05:43:14.871Z,62.1
2022-11-16T05:48:25.383Z,61.9
2022-11-16T05:53:14.874Z,62.1
2022-11-16T05:58:14.755Z,61.9
2022-11-16T06:03:14.908Z,62.1
2022-11-16T06:08:15.124Z,63
2022-11-16T06:13:14.808Z,62.1
2022-11-16T06:18:15.589Z,63
2022-11-16T06:23:14.932Z,63
2022-11-16T06:28:14.805Z,62.4
2022-11-16T06:33:34.755Z,62.4
2022-11-16T06:38:15.326Z,62.1
2022-11-16T06:43:14.798Z,61.9
2022-11-16T06:48:14.886Z,60.5
2022-11-16T06:53:14.837Z,60.1
2022-11-16T06:58:14.781Z,60.1
2022-11-16T07:03:14.844Z,60.1
2022-11-16T07:08:14.764Z,61.1
2022-11-16T07:13:14.816Z,60.1
2022-11-16T07:18:23.339Z,60.4
2022-11-16T07:23:14.884Z,61.1
2022-11-16T07:28:14.754Z,61.1
2022-11-16T07:33:24.149Z,60.4
2022-11-16T07:38:18.319Z,57.7
2022-11-16T07:43:14.949Z,55.5
2022-11-16T07:48:14.904Z,52.8
2022-11-16T07:53:14.802Z,52.2
2022-11-16T07:58:14.766Z,52
2022-11-16T08:03:25.074Z,52
2022-11-16T08:08:14.963Z,52
2022-11-16T08:13:14.875Z,52
2022-11-16T08:18:26.080Z,52.8
2022-11-16T08:23:14.875Z,57.9
2022-11-16T08:28:15.101Z,59.7
2022-11-16T08:34:11.978Z,61
2022-11-16T08:53:15.201Z,59.3
2022-11-16T08:58:17.340Z,57.35
2022-11-16T09:03:17.667Z,55.4
2022-11-16T09:08:16.031Z,55.5
2022-11-16T09:13:15.430Z,55.6
2022-11-16T09:18:15.575Z,55.75
2022-11-16T09:23:15.409Z,55.6
2022-11-16T09:28:19.398Z,55.4
2022-11-16T09:33:16.218Z,55.2
2022-11-16T09:38:26.911Z,53.6
2022-11-16T09:43:33.146Z,53.6
2022-11-16T09:48:15.031Z,51.7
2022-11-16T09:53:15.477Z,51.1
2022-11-16T09:58:15.409Z,50.3
2022-11-16T10:03:15.234Z,49.3
2022-11-16T10:08:15.138Z,45.1
2022-11-16T10:13:15.198Z,44.5
2022-11-16T10:18:15.292Z,42.6
2022-11-16T10:23:15.012Z,40.4
2022-11-16T10:28:15.139Z,38.4
2022-11-16T10:33:14.988Z,38.3
2022-11-16T10:38:15.201Z,34.8
2022-11-16T10:43:32.324Z,33.4
2022-11-16T10:48:15.311Z,31.8
2022-11-16T10:53:15.113Z,31.4
2022-11-16T10:58:15.428Z,29.6
2022-11-16T11:03:15.138Z,27.1
2022-11-16T11:08:15.404Z,25.5
2022-11-16T11:13:16.102Z,25.5
2022-11-16T11:18:15.133Z,26.9
2022-11-16T11:23:15.234Z,26.9
2022-11-16T11:28:15.029Z,24.8
2022-11-16T11:33:15.066Z,24.8
2022-11-16T11:38:15.094Z,24.8
2022-11-16T11:43:30.358Z,24.8
2022-11-16T11:48:15.100Z,24.4
2022-11-16T11:53:15.134Z,23.3
2022-11-16T11:58:15.100Z,22.9
2022-11-16T12:03:15.564Z,17.9
2022-11-16T12:08:18.050Z,17.4
2022-11-16T12:13:15.774Z,15.9
2022-11-16T12:18:16.365Z,15.8
2022-11-16T12:23:15.164Z,13.4
2022-11-16T12:28:15.474Z,13.4
2022-11-16T12:33:17.788Z,12.3
2022-11-16T12:38:18.558Z,12.3
2022-11-16T12:43:31.949Z,12.6
2022-11-16T12:48:15.622Z,13.3
2022-11-16T12:53:15.169Z,13.4
2022-11-16T12:58:16.289Z,13.5
2022-11-16T13:03:15.227Z,13.5
2022-11-16T13:08:15.248Z,14.9
2022-11-16T13:13:49.867Z,15.3
2022-11-16T13:18:15.784Z,15.3
2022-11-16T13:23:15.782Z,15.1
2022-11-16T13:28:15.902Z,15.1
2022-11-16T13:34:04.008Z,15.1
2022-11-16T13:38:16.063Z,15.1
2022-11-16T13:43:41.454Z,14.6
2022-11-16T13:48:15.267Z,13.6
2022-11-16T13:58:15.423Z,11.9
2022-11-16T14:03:22.039Z,11.9
2022-11-16T14:08:15.193Z,10.6
2022-11-16T14:13:15.323Z,10.6
2022-11-16T14:18:16.073Z,10.6
2022-11-16T14:23:15.291Z,12.2
2022-11-16T14:28:15.262Z,12.2
2022-11-16T14:33:15.970Z,12.3
2022-11-16T14:38:16.045Z,12.3
2022-11-16T14:43:29.952Z,12.4
2022-11-16T14:48:16.684Z,13.6
2022-11-16T14:53:17.138Z,13.6
2022-11-16T14:58:15.929Z,14
2022-11-16T15:03:17.006Z,14
2022-11-16T15:08:16.224Z,14.5
2022-11-16T15:13:15.300Z,14.5
2022-11-16T15:18:55.541Z,12.9
2022-11-16T15:23:20.305Z,12.9
2022-11-16T15:28:15.816Z,13.9
2022-11-16T15:33:23.478Z,13.9
2022-11-16T15:38:22.220Z,13.9
2022-11-16T15:44:01.656Z,13.9
2022-11-16T15:48:39.226Z,14.2
2022-11-16T15:53:15.422Z,14.2
2022-11-16T15:58:17.299Z,14.3
2022-11-16T16:03:50.726Z,14.9
2022-11-16T16:08:27.603Z,14.3
2022-11-16T16:13:17.209Z,14.4
2022-11-16T16:18:35.183Z,14.4
2022-11-16T16:23:15.277Z,14.4
2022-11-16T16:28:19.185Z,16.4
2022-11-16T16:38:23.963Z,36
2022-11-16T16:44:20.702Z,37.1
2022-11-16T16:49:12.158Z,37.1
2022-11-16T16:54:14.451Z,36
2022-11-16T17:18:40.797Z,37.6
2022-11-16T18:58:49.643Z,27.4
2022-11-16T19:03:18.884Z,27.75
2022-11-16T19:08:22.002Z,27.4
2022-11-16T19:13:31.943Z,27.75
2022-11-16T19:18:22.243Z,28.1
2022-11-16T19:23:24.675Z,30.3
2022-11-16T19:28:18.878Z,54.5
2022-11-16T19:33:18.861Z,78.7
2022-11-16T19:38:18.894Z,105.45
2022-11-16T19:43:18.949Z,132.2
2022-11-16T19:48:18.867Z,478.8
2022-11-16T19:53:19.172Z,158.2
2022-11-16T19:58:19.804Z,158.2
2022-11-16T20:03:19.242Z,158.2
2022-11-16T20:08:19.215Z,132.2
2022-11-16T20:13:19.485Z,38.7
2022-11-16T20:18:19.528Z,37.5
2022-11-16T20:23:20.614Z,36.7
2022-11-16T20:28:20.810Z,35.5
2022-11-16T20:33:19.022Z,35.1
2022-11-16T20:38:19.225Z,34.8
2022-11-16T20:43:18.912Z,34.8
2022-11-16T20:48:18.846Z,34.8
2022-11-16T20:53:18.951Z,35.1
2022-11-16T20:58:22.982Z,40.1
2022-11-16T21:03:18.836Z,44.5
2022-11-16T21:08:18.872Z,49.7
2022-11-16T21:13:18.893Z,90
2022-11-16T21:18:18.889Z,339.9
2022-11-16T21:23:18.956Z,339.9
2022-11-16T21:28:25.405Z,339.9
2022-11-16T21:33:18.834Z,90
2022-11-16T21:38:19.099Z,65.8
2022-11-16T21:43:18.843Z,43.5
2022-11-16T21:48:18.861Z,43.5
2022-11-16T21:53:18.936Z,43.5
2022-11-16T21:58:18.961Z,43.5
2022-11-16T22:03:19.021Z,43.5
2022-11-16T22:08:19.083Z,43.1
2022-11-16T22:13:19.012Z,43.1
2022-11-16T22:18:18.930Z,47.5
2022-11-16T22:23:22.969Z,48.8
2022-11-16T22:28:21.891Z,48.8
2022-11-16T22:33:18.886Z,48.8
2022-11-16T22:38:18.889Z,51.2
2022-11-16T22:43:18.935Z,57
2022-11-16T22:48:18.951Z,57.7
2022-11-16T22:53:18.983Z,63.4
2022-11-16T22:58:18.849Z,65.8
2022-11-16T23:03:18.969Z,66.9
2022-11-16T23:08:19.029Z,67.2
2022-11-16T23:13:18.877Z,67.2
2022-11-16T23:18:18.847Z,70.2
2022-11-16T23:23:18.923Z,70.6
2022-11-16T23:28:18.881Z,70.7
2022-11-16T23:33:18.876Z,72.3
2022-11-16T23:38:18.924Z,73.3
2022-11-16T23:43:18.912Z,74.2
2022-11-16T23:48:18.902Z,74.3
2022-11-16T23:53:18.914Z,78.7
2022-11-16T23:58:18.940Z,79.9
